Time;durP1;ratioP1;P1;durP2;ratioP2;P2;SDS_P1;SDS_P2;PMS_P1;PMS_P2;Temp;Humidity;BMP_temperature;BMP_pressure;BME280_temperature;BME280_humidity;BME280_pressure;Samples;Min_cycle;Max_cycle;Signal;HPM_P1;HPM_P2
2021/09/18 00:00:05;;;;;;;3.70;3.40;;;16.10;99.90;;;;;;5010685;28;20463;-81
2021/09/18 00:02:34;;;;;;;3.50;3.20;;;15.90;99.90;;;;;;5015596;28;20449;-80
2021/09/18 00:05:03;;;;;;;4.10;3.77;;;15.70;99.90;;;;;;5018823;28;20493;-81
2021/09/18 00:07:31;;;;;;;3.10;2.90;;;15.70;1.00;;;;;;5012268;28;20964;-83
2021/09/18 00:10:00;;;;;;;3.47;3.20;;;15.90;99.90;;;;;;5012381;28;20443;-81
2021/09/18 00:12:30;;;;;;;3.63;3.33;;;15.80;99.90;;;;;;5009905;28;20462;-80
2021/09/18 00:14:58;;;;;;;6.03;3.70;;;16.00;99.90;;;;;;5011205;28;20486;-80
2021/09/18 00:17:27;;;;;;;3.80;3.50;;;16.10;99.90;;;;;;5012216;28;20470;-81
2021/09/18 00:19:55;;;;;;;5.23;3.10;;;16.10;99.90;;;;;;5026969;28;20482;-80
2021/09/18 00:22:25;;;;;;;5.30;3.00;;;16.20;99.90;;;;;;5005832;28;20466;-81
2021/09/18 00:24:53;;;;;;;3.40;3.10;;;16.10;99.90;;;;;;5010341;28;20475;-80
2021/09/18 00:27:21;;;;;;;3.50;3.20;;;16.10;99.90;;;;;;5010431;28;20463;-80
2021/09/18 00:29:51;;;;;;;3.20;3.00;;;16.10;99.90;;;;;;5010618;28;20465;-80
2021/09/18 00:32:19;;;;;;;4.00;3.30;;;16.10;99.90;;;;;;5011778;28;20443;-80
2021/09/18 00:34:48;;;;;;;3.47;3.17;;;16.10;99.90;;;;;;5010489;28;20474;-80
2021/09/18 00:37:16;;;;;;;3.70;3.40;;;16.10;99.90;;;;;;5010517;28;20988;-80
2021/09/18 00:39:44;;;;;;;3.87;3.00;;;16.10;99.90;;;;;;5026664;28;20478;-81
2021/09/18 00:42:12;;;;;;;3.70;3.47;;;16.00;99.90;;;;;;5026867;28;20503;-84
2021/09/18 00:44:41;;;;;;;3.37;3.07;;;16.00;99.90;;;;;;5009845;28;20482;-81
2021/09/18 00:47:11;;;;;;;3.43;3.13;;;16.00;99.90;;;;;;5009501;28;20470;-81
2021/09/18 00:49:39;;;;;;;3.00;2.80;;;16.00;99.90;;;;;;5026087;28;20753;-80
2021/09/18 00:52:07;;;;;;;4.37;2.83;;;16.00;99.90;;;;;;5026473;28;20447;-81
2021/09/18 00:54:36;;;;;;;3.70;3.00;;;16.00;99.90;;;;;;5010623;28;20504;-79
2021/09/18 00:57:04;;;;;;;4.40;3.17;;;16.00;99.90;;;;;;5009550;28;20471;-80
2021/09/18 00:59:34;;;;;;;3.47;3.17;;;15.90;99.90;;;;;;5007289;28;20473;-82
2021/09/18 01:02:02;;;;;;;4.30;3.30;;;15.90;99.90;;;;;;5008397;28;20553;-79
2021/09/18 01:04:32;;;;;;;3.00;2.80;;;15.90;99.90;;;;;;5006948;28;20479;-81
2021/09/18 01:07:01;;;;;;;3.57;3.03;;;15.80;99.90;;;;;;5007872;28;20548;-79
2021/09/18 01:09:31;;;;;;;3.43;3.23;;;15.80;99.90;;;;;;5010548;28;20454;-81
2021/09/18 01:12:00;;;;;;;3.13;2.93;;;15.80;99.90;;;;;;5024633;28;20458;-78
2021/09/18 01:14:28;;;;;;;3.43;3.13;;;15.80;99.90;;;;;;5009579;28;20569;-80
2021/09/18 01:16:56;;;;;;;3.47;3.13;;;15.70;99.90;;;;;;5009518;28;21281;-81
2021/09/18 01:19:25;;;;;;;3.33;3.03;;;15.70;99.90;;;;;;5008704;28;20537;-79
2021/09/18 01:21:55;;;;;;;3.30;3.00;;;15.80;99.90;;;;;;5025928;28;20454;-81
2021/09/18 01:24:25;;;;;;;3.63;3.33;;;15.80;99.90;;;;;;5010324;28;20475;-81
2021/09/18 01:26:53;;;;;;;4.90;3.37;;;15.70;99.90;;;;;;4990006;28;20462;-81
2021/09/18 01:29:22;;;;;;;3.73;3.30;;;15.80;99.90;;;;;;5008731;28;20449;-80
2021/09/18 01:31:50;;;;;;;3.30;3.00;;;15.80;99.90;;;;;;5009063;28;20457;-83
2021/09/18 01:34:20;;;;;;;4.23;3.20;;;15.80;99.90;;;;;;5008726;28;20480;-80
2021/09/18 01:36:49;;;;;;;3.10;2.80;;;15.60;99.90;;;;;;5009047;28;20492;-83
2021/09/18 01:39:18;;;;;;;3.37;3.10;;;15.40;99.90;;;;;;5008417;28;20515;-81
2021/09/18 01:41:49;;;;;;;6.20;2.97;;;15.50;99.90;;;;;;5008356;28;20465;-79
2021/09/18 01:44:20;;;;;;;3.27;2.97;;;15.60;99.90;;;;;;5008953;28;20475;-81
2021/09/18 01:46:49;;;;;;;3.90;3.60;;;15.60;99.90;;;;;;5024973;28;21043;-81
2021/09/18 01:49:19;;;;;;;2.83;2.63;;;15.60;99.90;;;;;;5008271;28;20457;-81
2021/09/18 01:51:56;;;;;;;3.50;3.20;;;15.60;99.90;;;;;;5008979;28;20457;-80
2021/09/18 01:54:28;;;;;;;2.80;2.60;;;15.60;99.90;;;;;;5008302;28;20497;-79
2021/09/18 01:56:57;;;;;;;4.27;3.20;;;15.60;99.90;;;;;;5009245;28;20512;-80
2021/09/18 01:59:26;;;;;;;3.00;2.70;;;15.60;99.90;;;;;;5009676;28;20842;-80
2021/09/18 02:01:54;;;;;;;3.50;3.00;;;15.50;99.90;;;;;;5002578;28;20450;-80
2021/09/18 02:04:22;;;;;;;3.13;2.83;;;15.50;99.90;;;;;;5001694;28;20474;-80
2021/09/18 02:06:51;;;;;;;6.73;3.03;;;15.50;99.90;;;;;;5009897;28;20823;-80
2021/09/18 02:09:19;;;;;;;7.50;3.07;;;15.60;99.90;;;;;;5008864;28;20895;-79
2021/09/18 02:11:47;;;;;;;5.03;3.03;;;15.60;99.90;;;;;;5008010;28;21014;-82
2021/09/18 02:14:18;;;;;;;3.47;2.90;;;15.50;99.90;;;;;;5009072;28;21052;-80
2021/09/18 02:16:46;;;;;;;2.73;2.50;;;15.50;99.90;;;;;;5009207;28;20448;-79
2021/09/18 02:19:14;;;;;;;3.37;3.07;;;15.40;99.90;;;;;;5009883;28;20553;-80
2021/09/18 02:21:42;;;;;;;2.53;2.33;;;15.50;99.90;;;;;;5009204;28;20823;-78
2021/09/18 02:24:11;;;;;;;2.80;2.53;;;15.50;99.90;;;;;;5003100;28;20485;-80
2021/09/18 02:26:39;;;;;;;3.90;2.90;;;15.40;99.90;;;;;;5008425;28;20988;-80
2021/09/18 02:29:07;;;;;;;4.93;4.17;;;15.40;99.90;;;;;;5008884;28;20511;-80
2021/09/18 02:31:37;;;;;;;3.43;3.17;;;15.40;99.90;;;;;;5009339;28;20444;-79
2021/09/18 02:34:05;;;;;;;4.60;3.27;;;15.40;99.90;;;;;;5007659;28;20505;-80
2021/09/18 02:36:34;;;;;;;3.33;3.13;;;15.40;99.90;;;;;;5006211;28;20473;-81
2021/09/18 02:39:02;;;;;;;3.07;2.77;;;15.40;99.90;;;;;;5009129;28;20539;-82
2021/09/18 02:41:30;;;;;;;3.10;2.90;;;15.30;99.90;;;;;;5008665;28;20470;-81
2021/09/18 02:43:59;;;;;;;3.30;3.10;;;15.30;99.90;;;;;;5007973;28;20890;-79
2021/09/18 02:46:27;;;;;;;3.90;3.20;;;15.30;99.90;;;;;;5007428;28;20512;-81
2021/09/18 02:48:57;;;;;;;3.20;2.90;;;15.30;99.90;;;;;;5006513;28;20460;-79
2021/09/18 02:51:25;;;;;;;3.03;2.83;;;15.30;99.90;;;;;;5008876;28;20454;-80
2021/09/18 02:53:54;;;;;;;4.13;2.87;;;15.30;99.90;;;;;;5005592;28;20837;-80
2021/09/18 02:56:22;;;;;;;3.53;3.23;;;15.30;99.90;;;;;;5008948;28;20521;-80
2021/09/18 02:58:50;;;;;;;3.63;3.33;;;15.30;99.90;;;;;;5009647;28;20533;-80
2021/09/18 03:01:19;;;;;;;4.40;3.97;;;15.30;99.90;;;;;;5008383;28;20526;-80
2021/09/18 03:03:47;;;;;;;3.23;3.03;;;15.30;99.90;;;;;;5004431;28;20567;-80
2021/09/18 03:06:17;;;;;;;4.00;3.60;;;15.30;99.90;;;;;;5008631;28;20454;-76
2021/09/18 03:08:45;;;;;;;3.17;2.87;;;15.20;99.90;;;;;;5009313;28;20463;-80
2021/09/18 03:11:14;;;;;;;3.23;3.03;;;15.20;99.90;;;;;;5008720;28;20443;-81
2021/09/18 03:13:42;;;;;;;3.40;2.83;;;15.20;99.90;;;;;;5007246;28;20480;-79
2021/09/18 03:16:10;;;;;;;3.30;2.93;;;15.30;99.90;;;;;;5010377;28;20486;-81
2021/09/18 03:18:38;;;;;;;3.10;2.70;;;15.20;99.90;;;;;;5003688;28;20440;-80
2021/09/18 03:21:07;;;;;;;4.57;3.20;;;15.20;99.90;;;;;;5009576;28;20581;-81
2021/09/18 03:23:36;;;;;;;3.30;3.00;;;15.20;99.90;;;;;;5010017;28;20473;-81
2021/09/18 03:26:05;;;;;;;3.47;2.93;;;15.10;99.90;;;;;;5008893;28;20448;-80
2021/09/18 03:28:33;;;;;;;3.53;3.23;;;15.10;99.90;;;;;;5010402;28;20452;-80
2021/09/18 03:31:01;;;;;;;2.93;2.20;;;15.10;99.90;;;;;;5009654;28;20448;-79
2021/09/18 03:33:30;;;;;;;4.67;3.97;;;15.10;99.90;;;;;;5009333;28;20476;-81
2021/09/18 03:35:58;;;;;;;3.10;2.80;;;15.10;99.90;;;;;;5009323;28;20546;-79
2021/09/18 03:38:26;;;;;;;4.73;3.77;;;15.00;99.90;;;;;;5009717;28;20548;-80
2021/09/18 03:40:56;;;;;;;5.70;2.90;;;15.00;99.90;;;;;;5007993;28;20473;-81
2021/09/18 03:43:24;;;;;;;3.40;3.10;;;15.00;99.90;;;;;;4998066;28;20469;-80
2021/09/18 03:45:52;;;;;;;3.33;3.00;;;15.00;99.90;;;;;;5009640;28;20450;-81
2021/09/18 03:48:21;;;;;;;4.23;2.73;;;14.90;99.90;;;;;;5009453;28;20953;-81
2021/09/18 03:50:54;;;;;;;6.07;3.60;;;14.90;99.90;;;;;;5009591;28;20451;-80
2021/09/18 03:53:23;;;;;;;3.60;3.30;;;14.90;99.90;;;;;;5009617;28;20599;-80
2021/09/18 03:55:51;;;;;;;2.77;2.53;;;14.90;99.90;;;;;;5007472;28;20542;-80
2021/09/18 03:58:21;;;;;;;3.97;2.93;;;15.00;99.90;;;;;;5011304;28;20495;-80
2021/09/18 04:00:49;;;;;;;4.30;3.93;;;15.00;99.90;;;;;;5013078;28;20470;-81
2021/09/18 04:03:17;;;;;;;3.80;2.90;;;15.00;99.90;;;;;;5013355;28;20449;-81
2021/09/18 04:05:46;;;;;;;3.37;2.90;;;15.00;99.90;;;;;;5012526;28;20445;-80
2021/09/18 04:08:14;;;;;;;3.20;2.80;;;15.00;99.90;;;;;;5012449;28;20984;-79
2021/09/18 04:10:42;;;;;;;3.30;3.03;;;14.90;99.90;;;;;;5012034;28;20471;-80
2021/09/18 04:13:11;;;;;;;5.00;3.30;;;14.90;99.90;;;;;;5010763;28;20455;-80
2021/09/18 04:15:40;;;;;;;3.60;3.30;;;14.90;99.90;;;;;;5012632;28;20483;-80
2021/09/18 04:18:09;;;;;;;3.47;3.17;;;14.90;99.90;;;;;;5012338;28;20476;-79
2021/09/18 04:20:37;;;;;;;3.17;2.93;;;14.80;99.90;;;;;;5026879;28;20466;-80
2021/09/18 04:23:05;;;;;;;3.47;3.17;;;14.80;99.90;;;;;;5012231;28;20464;-81
2021/09/18 04:25:33;;;;;;;3.97;3.60;;;14.80;99.90;;;;;;5012199;28;20540;-81
2021/09/18 04:28:02;;;;;;;3.40;3.10;;;14.80;99.90;;;;;;5011796;28;20460;-81
2021/09/18 04:30:30;;;;;;;4.47;3.73;;;14.80;99.90;;;;;;5011350;28;20474;-79
2021/09/18 04:33:00;;;;;;;4.10;3.70;;;14.70;99.90;;;;;;5007207;28;20966;-80
2021/09/18 04:35:28;;;;;;;3.50;3.00;;;14.50;99.90;;;;;;4998834;28;20481;-80
2021/09/18 04:37:56;;;;;;;4.47;4.03;;;14.50;99.90;;;;;;5007684;28;20449;-80
2021/09/18 04:40:24;;;;;;;4.70;3.77;;;14.60;99.90;;;;;;5011693;28;20531;-81
2021/09/18 04:42:53;;;;;;;4.30;3.37;;;14.60;99.90;;;;;;5012063;28;20973;-80
2021/09/18 04:45:21;;;;;;;3.37;3.07;;;14.70;99.90;;;;;;5010838;28;20571;-78
2021/09/18 04:47:49;;;;;;;6.17;3.90;;;14.70;99.90;;;;;;5001906;28;20461;-79
2021/09/18 04:50:20;;;;;;;5.70;3.87;;;14.70;99.90;;;;;;5010962;28;20457;-80
2021/09/18 04:52:49;;;;;;;3.80;3.50;;;14.70;99.90;;;;;;5011356;28;20528;-79
2021/09/18 04:55:17;;;;;;;4.43;4.03;;;14.70;99.90;;;;;;5011751;28;21512;-79
2021/09/18 04:57:45;;;;;;;3.63;3.33;;;14.70;99.90;;;;;;5011404;28;20482;-79
2021/09/18 05:00:14;;;;;;;4.03;3.47;;;14.60;99.90;;;;;;5012462;28;20442;-79
2021/09/18 05:02:42;;;;;;;4.10;3.80;;;14.60;99.90;;;;;;5012534;28;20476;-82
2021/09/18 05:05:12;;;;;;;3.60;2.97;;;14.70;99.90;;;;;;5011022;28;20482;-79
2021/09/18 05:07:42;;;;;;;4.03;3.40;;;14.60;99.90;;;;;;5012021;28;21153;-81
2021/09/18 05:10:11;;;;;;;4.27;3.47;;;14.60;99.90;;;;;;5010614;28;20470;-79
2021/09/18 05:12:39;;;;;;;5.60;4.17;;;14.60;99.90;;;;;;5009871;28;20457;-79
2021/09/18 05:15:08;;;;;;;5.40;4.40;;;14.60;99.90;;;;;;5011142;28;20457;-79
2021/09/18 05:17:37;;;;;;;4.60;4.30;;;14.60;99.90;;;;;;5010853;28;20453;-79
2021/09/18 05:20:07;;;;;;;4.13;3.77;;;14.60;99.90;;;;;;5010350;28;20434;-79
2021/09/18 05:22:35;;;;;;;3.60;3.30;;;14.60;99.90;;;;;;5008854;28;20923;-78
2021/09/18 05:25:07;;;;;;;4.60;3.73;;;14.60;99.90;;;;;;5010494;28;20881;-78
2021/09/18 05:27:35;;;;;;;4.57;4.07;;;14.60;99.90;;;;;;5007885;28;20552;-78
2021/09/18 05:30:03;;;;;;;4.27;3.83;;;14.70;99.90;;;;;;5010124;28;20442;-78
2021/09/18 05:32:32;;;;;;;3.73;3.43;;;14.70;99.90;;;;;;5009956;28;20524;-78
2021/09/18 05:35:01;;;;;;;5.53;5.13;;;14.60;99.90;;;;;;5010018;28;20479;-78
2021/09/18 05:37:29;;;;;;;3.90;3.60;;;14.60;99.90;;;;;;5010406;28;20547;-76
2021/09/18 05:39:57;;;;;;;3.53;3.27;;;14.60;99.90;;;;;;5009789;28;20503;-78
2021/09/18 05:42:27;;;;;;;4.03;3.73;;;14.60;99.90;;;;;;5009736;28;20476;-77
2021/09/18 05:44:55;;;;;;;3.30;3.00;;;14.60;99.90;;;;;;5010087;28;20818;-77
2021/09/18 05:47:23;;;;;;;4.80;4.13;;;14.60;99.90;;;;;;5009782;28;20468;-79
2021/09/18 05:49:52;;;;;;;4.53;4.13;;;14.60;99.90;;;;;;5009924;28;20528;-78
2021/09/18 05:52:20;;;;;;;4.17;3.77;;;14.60;99.90;;;;;;5010333;28;20460;-78
2021/09/18 05:54:48;;;;;;;4.37;3.97;;;14.60;99.90;;;;;;5009186;28;21073;-78
2021/09/18 05:57:16;;;;;;;5.43;4.27;;;14.60;99.90;;;;;;5009671;28;20456;-78
2021/09/18 05:59:46;;;;;;;3.97;3.60;;;14.40;99.90;;;;;;5009447;28;20465;-77
2021/09/18 06:02:14;;;;;;;4.40;4.00;;;14.10;99.90;;;;;;5004917;28;21388;-75
2021/09/18 06:04:43;;;;;;;4.77;4.13;;;13.90;1.00;;;;;;5005247;28;20481;-75
2021/09/18 06:07:11;;;;;;;4.43;3.90;;;13.50;1.00;;;;;;5008547;28;20457;-74
2021/09/18 06:09:39;;;;;;;4.30;3.87;;;13.80;47.90;;;;;;5008629;28;20459;-74
2021/09/18 06:12:07;;;;;;;4.20;3.80;;;14.10;1.00;;;;;;5002687;28;20470;-75
2021/09/18 06:14:36;;;;;;;5.50;4.53;;;14.40;1.00;;;;;;5007110;28;20531;-74
2021/09/18 06:17:05;;;;;;;4.20;3.80;;;14.50;1.00;;;;;;5006231;28;20460;-73
2021/09/18 06:19:33;;;;;;;4.57;4.20;;;14.60;1.00;;;;;;5008820;28;20549;-73
2021/09/18 06:22:02;;;;;;;5.10;4.60;;;14.60;1.00;;;;;;5008740;28;20469;-76
2021/09/18 06:24:30;;;;;;;4.30;3.90;;;14.70;1.00;;;;;;5008959;28;20535;-76
2021/09/18 06:26:58;;;;;;;4.63;3.83;;;14.80;1.00;;;;;;5009414;28;20531;-77
2021/09/18 06:29:27;;;;;;;4.73;4.33;;;14.80;1.00;;;;;;5009133;28;20666;-76
2021/09/18 06:31:55;;;;;;;6.40;4.23;;;14.90;1.00;;;;;;5008391;28;20465;-76
2021/09/18 06:34:25;;;;;;;4.93;4.43;;;15.00;1.00;;;;;;5009151;28;20488;-76
2021/09/18 06:36:53;;;;;;;6.60;4.40;;;15.00;1.00;;;;;;5007797;28;20461;-75
2021/09/18 06:39:21;;;;;;;5.57;5.07;;;15.10;1.00;;;;;;5022679;28;20464;-76
2021/09/18 06:41:50;;;;;;;7.13;5.50;;;15.00;1.00;;;;;;5009168;28;20478;-77
2021/09/18 06:44:18;;;;;;;5.43;4.93;;;15.00;1.00;;;;;;5007326;28;20478;-74
2021/09/18 06:46:46;;;;;;;6.30;5.40;;;15.00;1.00;;;;;;4999418;28;20473;-71
2021/09/18 06:49:14;;;;;;;6.13;5.53;;;15.10;1.00;;;;;;4996973;28;20919;-71
2021/09/18 06:51:44;;;;;;;6.33;5.60;;;15.20;1.00;;;;;;5008986;28;20452;-74
2021/09/18 06:54:12;;;;;;;6.10;4.60;;;15.10;1.00;;;;;;5009183;28;20469;-74
2021/09/18 06:56:40;;;;;;;5.90;5.30;;;15.20;1.00;;;;;;5008578;28;20949;-75
2021/09/18 06:59:08;;;;;;;5.27;4.83;;;15.20;1.00;;;;;;5008936;28;20535;-73
2021/09/18 07:01:37;;;;;;;5.53;5.00;;;15.30;1.00;;;;;;4989309;28;20442;-75
2021/09/18 07:04:05;;;;;;;6.57;4.83;;;15.40;1.00;;;;;;4995847;28;20502;-74
2021/09/18 07:06:33;;;;;;;6.13;5.63;;;15.50;1.00;;;;;;5007259;28;20507;-74
2021/09/18 07:09:03;;;;;;;5.60;5.00;;;15.50;1.00;;;;;;5008592;28;20458;-74
2021/09/18 07:11:31;;;;;;;6.23;5.57;;;15.50;1.00;;;;;;5008346;28;20546;-75
2021/09/18 07:13:59;;;;;;;5.83;5.23;;;15.60;1.00;;;;;;5008403;28;20478;-75
2021/09/18 07:16:28;;;;;;;5.70;4.77;;;15.70;1.00;;;;;;5009055;28;20463;-76
2021/09/18 07:18:56;;;;;;;9.60;5.77;;;15.80;1.00;;;;;;5006274;28;20986;-74
2021/09/18 07:21:24;;;;;;;7.57;6.60;;;15.80;1.00;;;;;;5005510;28;20578;-74
2021/09/18 07:23:52;;;;;;;7.77;6.20;;;15.90;1.00;;;;;;5006170;28;20504;-74
2021/09/18 07:26:22;;;;;;;8.33;6.07;;;16.00;1.00;;;;;;5007141;28;20451;-74
2021/09/18 07:28:50;;;;;;;8.50;6.33;;;16.00;1.00;;;;;;5002408;28;20475;-73
2021/09/18 07:31:18;;;;;;;6.47;5.87;;;16.10;1.00;;;;;;5020143;28;20455;-74
2021/09/18 07:33:47;;;;;;;7.13;6.50;;;16.40;1.00;;;;;;5005133;28;20562;-75
2021/09/18 07:36:16;;;;;;;7.20;6.43;;;16.20;1.00;;;;;;4992554;28;21162;-74
2021/09/18 07:38:44;;;;;;;6.33;5.73;;;16.30;1.00;;;;;;4991859;28;20569;-74
2021/09/18 07:41:13;;;;;;;8.20;7.40;;;16.40;1.00;;;;;;5002941;28;20445;-72
2021/09/18 07:43:43;;;;;;;6.50;5.47;;;16.50;1.00;;;;;;5010533;28;20548;-74
2021/09/18 07:46:11;;;;;;;5.60;5.10;;;16.60;1.00;;;;;;5012853;28;20440;-74
2021/09/18 07:48:39;;;;;;;6.43;5.83;;;16.70;1.00;;;;;;5012884;28;20448;-75
2021/09/18 07:51:07;;;;;;;7.10;5.37;;;16.90;1.00;;;;;;5011637;28;20853;-74
2021/09/18 07:53:36;;;;;;;6.50;5.60;;;17.20;1.00;;;;;;5012412;28;21015;-74
2021/09/18 07:56:04;;;;;;;6.20;5.60;;;17.40;1.00;;;;;;5012214;28;20464;-75
2021/09/18 07:58:32;;;;;;;5.80;5.30;;;17.60;1.00;;;;;;5012428;28;20453;-75
2021/09/18 08:01:02;;;;;;;4.97;4.57;;;17.80;1.00;;;;;;5011593;28;20805;-74
2021/09/18 08:03:30;;;;;;;6.30;5.70;;;18.00;1.00;;;;;;5011661;28;20504;-75
2021/09/18 08:05:59;;;;;;;6.60;6.10;;;18.20;1.00;;;;;;5012409;28;20465;-75
2021/09/18 08:08:27;;;;;;;7.20;6.43;;;18.40;1.00;;;;;;5011601;28;20970;-76
2021/09/18 08:10:55;;;;;;;5.67;5.10;;;18.60;99.90;;;;;;5011310;28;20468;-75
2021/09/18 08:13:23;;;;;;;7.03;6.33;;;18.80;99.90;;;;;;5011934;28;20792;-74
2021/09/18 08:15:52;;;;;;;7.70;6.53;;;18.90;99.90;;;;;;5012036;28;21295;-74
2021/09/18 08:18:21;;;;;;;5.30;4.80;;;19.10;99.90;;;;;;5011710;28;20557;-75
2021/09/18 08:20:50;;;;;;;4.77;4.37;;;19.20;99.90;;;;;;5011074;28;20453;-75
2021/09/18 08:23:18;;;;;;;4.53;4.13;;;19.40;99.90;;;;;;5011811;28;20470;-75
2021/09/18 08:25:46;;;;;;;10.00;4.40;;;19.50;99.90;;;;;;5011505;28;21016;-75
2021/09/18 08:28:14;;;;;;;7.20;5.07;;;19.50;99.90;;;;;;5011844;28;20493;-75
2021/09/18 08:30:43;;;;;;;3.93;3.53;;;19.40;99.90;;;;;;5011534;28;20449;-73
2021/09/18 08:33:11;;;;;;;4.10;3.80;;;19.40;99.90;;;;;;5010991;28;20518;-75
2021/09/18 08:35:41;;;;;;;6.80;4.30;;;19.40;99.90;;;;;;5011237;28;20481;-76
2021/09/18 08:38:09;;;;;;;3.87;3.50;;;19.40;99.90;;;;;;5007003;28;20503;-75
2021/09/18 08:40:39;;;;;;;3.20;2.90;;;19.50;99.90;;;;;;5010245;28;20464;-76
2021/09/18 08:43:08;;;;;;;4.70;3.17;;;19.60;99.90;;;;;;5009523;28;20988;-75
2021/09/18 08:45:37;;;;;;;4.97;4.57;;;19.60;99.90;;;;;;5010864;28;20556;-75
2021/09/18 08:48:07;;;;;;;4.33;3.93;;;19.60;99.90;;;;;;5011492;28;20441;-75
2021/09/18 08:50:36;;;;;;;4.83;4.40;;;19.70;99.90;;;;;;5010087;28;20443;-75
2021/09/18 08:53:07;;;;;;;3.57;2.70;;;19.80;99.90;;;;;;5010704;28;20859;-72
2021/09/18 08:55:35;;;;;;;3.70;2.63;;;19.80;99.90;;;;;;5011158;28;20553;-73
2021/09/18 08:58:03;;;;;;;4.10;3.37;;;19.90;99.90;;;;;;5010437;28;20458;-75
2021/09/18 09:00:47;;;;;;;3.17;2.87;;;19.90;99.90;;;;;;5010330;28;20452;-75
2021/09/18 09:03:24;;;;;;;3.37;2.83;;;20.00;99.90;;;;;;5010660;28;20480;-75
2021/09/18 09:06:01;;;;;;;3.40;3.00;;;20.10;99.90;;;;;;5006064;28;21040;-75
2021/09/18 09:08:31;;;;;;;3.70;3.30;;;20.20;99.90;;;;;;4991622;28;20985;-75
2021/09/18 09:10:59;;;;;;;3.23;2.93;;;20.30;99.90;;;;;;4991161;28;20828;-74
2021/09/18 09:13:27;;;;;;;3.47;2.27;;;20.30;99.90;;;;;;5006378;28;21010;-73
2021/09/18 09:16:10;;;;;;;3.47;2.97;;;20.30;99.90;;;;;;5010385;28;20449;-75
2021/09/18 09:18:41;;;;;;;3.57;2.47;;;20.30;99.90;;;;;;5009804;28;20955;-75
2021/09/18 09:21:11;;;;;;;3.40;2.70;;;20.40;99.90;;;;;;5010271;28;20641;-75
2021/09/18 09:23:43;;;;;;;4.60;2.60;;;20.50;99.90;;;;;;5010608;28;20502;-75
2021/09/18 09:26:14;;;;;;;2.47;2.27;;;20.50;99.90;;;;;;5010108;28;20449;-73
2021/09/18 09:28:45;;;;;;;2.33;2.20;;;20.50;99.90;;;;;;5010689;28;20432;-75
2021/09/18 09:31:16;;;;;;;2.40;2.20;;;20.40;99.90;;;;;;5010476;28;20446;-75
2021/09/18 09:34:00;;;;;;;2.83;2.43;;;20.30;99.90;;;;;;5010384;28;20475;-74
2021/09/18 09:36:29;;;;;;;2.77;2.57;;;20.30;99.90;;;;;;5010172;28;20818;-75
2021/09/18 09:39:00;;;;;;;3.27;2.13;;;20.20;99.90;;;;;;5009979;28;20451;-74
2021/09/18 09:41:33;;;;;;;1.67;1.57;;;20.20;99.90;;;;;;5004982;28;20467;-75
2021/09/18 09:44:02;;;;;;;1.83;1.60;;;20.40;99.90;;;;;;4990543;28;20480;-75
2021/09/18 09:46:31;;;;;;;1.57;1.47;;;20.60;99.90;;;;;;4990675;28;20461;-75
2021/09/18 09:49:04;;;;;;;1.60;1.47;;;20.80;99.90;;;;;;4998489;28;20488;-73
2021/09/18 09:51:32;;;;;;;2.40;1.97;;;20.80;99.90;;;;;;5024459;28;20468;-75
2021/09/18 09:54:24;;;;;;;2.83;1.70;;;21.00;99.90;;;;;;5009627;28;20535;-75
2021/09/18 09:57:11;;;;;;;1.93;1.73;;;21.10;99.90;;;;;;5009951;28;20443;-72
2021/09/18 09:59:40;;;;;;;1.80;1.70;;;21.10;99.90;;;;;;4994620;28;20482;-75
2021/09/18 10:02:10;;;;;;;2.70;2.50;;;21.10;99.90;;;;;;5005005;28;20445;-75
2021/09/18 10:04:39;;;;;;;2.50;2.30;;;21.20;99.90;;;;;;5009919;28;20535;-75
2021/09/18 10:07:09;;;;;;;2.07;1.93;;;21.10;99.90;;;;;;5009448;28;20464;-75
2021/09/18 10:09:38;;;;;;;2.07;1.87;;;21.10;99.90;;;;;;5009584;28;20484;-74
2021/09/18 10:12:07;;;;;;;1.60;1.50;;;21.20;99.90;;;;;;5010050;28;20449;-74
2021/09/18 10:14:40;;;;;;;1.53;1.43;;;21.30;99.90;;;;;;5009320;28;20512;-75
2021/09/18 10:17:08;;;;;;;1.80;1.70;;;21.30;99.90;;;;;;5009852;28;21115;-75
2021/09/18 10:20:03;;;;;;;2.07;1.60;;;21.30;99.90;;;;;;5009534;28;20457;-74
2021/09/18 10:25:22;;;;;;;1.30;1.20;;;21.50;99.90;;;;;;5009123;28;20487;-75
2021/09/18 10:28:01;;;;;;;1.60;1.50;;;21.60;99.90;;;;;;5008276;28;20461;-75
2021/09/18 10:30:32;;;;;;;2.53;1.40;;;21.80;99.90;;;;;;5024266;28;20452;-75
2021/09/18 10:33:00;;;;;;;3.07;1.50;;;21.80;99.90;;;;;;5009499;28;20504;-74
2021/09/18 10:35:30;;;;;;;1.90;1.40;;;21.90;99.90;;;;;;5009386;28;20539;-75
2021/09/18 10:38:19;;;;;;;1.30;1.20;;;21.90;99.90;;;;;;5008931;28;20856;-75
2021/09/18 10:40:56;;;;;;;2.57;1.50;;;22.00;99.90;;;;;;5005700;28;20465;-75
2021/09/18 10:43:27;;;;;;;1.43;1.20;;;22.00;99.90;;;;;;5008049;28;20469;-75
2021/09/18 10:45:55;;;;;;;1.00;1.00;;;22.00;99.90;;;;;;5009283;28;20441;-75
2021/09/18 10:48:49;;;;;;;2.70;1.00;;;22.00;99.90;;;;;;5009559;28;20476;-74
2021/09/18 10:51:48;;;;;;;1.57;1.20;;;22.10;99.90;;;;;;5008442;28;20465;-76
2021/09/18 10:54:17;;;;;;;1.60;1.00;;;22.30;99.90;;;;;;4948353;28;20531;-75
2021/09/18 10:57:05;;;;;;;0.70;0.70;;;22.20;99.90;;;;;;4996016;28;20450;-75
2021/09/18 10:59:45;;;;;;;0.90;0.90;;;22.20;99.90;;;;;;5007521;28;20942;-74
2021/09/18 11:02:48;;;;;;;1.10;1.10;;;22.30;99.90;;;;;;5009009;28;20476;-75
2021/09/18 11:05:56;;;;;;;1.13;1.03;;;22.40;99.90;;;;;;4995123;28;20543;-75
2021/09/18 11:08:27;;;;;;;1.37;1.27;;;22.30;99.90;;;;;;5011940;28;20452;-75
2021/09/18 11:10:59;;;;;;;1.20;1.10;;;22.40;99.90;;;;;;5013264;28;20441;-75
2021/09/18 11:13:33;;;;;;;1.10;1.00;;;22.40;99.90;;;;;;5013061;28;20450;-76
2021/09/18 11:16:05;;;;;;;1.20;1.10;;;22.40;99.90;;;;;;5009289;28;20445;-75
2021/09/18 11:18:37;;;;;;;1.97;1.30;;;22.30;99.90;;;;;;5028213;28;20859;-75
2021/09/18 11:21:13;;;;;;;0.90;0.90;;;22.20;99.90;;;;;;5012691;28;20552;-74
2021/09/18 11:23:43;;;;;;;1.67;1.07;;;22.10;99.90;;;;;;5013192;28;20519;-74
2021/09/18 11:26:35;;;;;;;1.23;1.13;;;22.00;99.90;;;;;;5012940;28;20965;-75
2021/09/18 11:29:19;;;;;;;1.10;1.00;;;22.10;99.90;;;;;;5009601;28;20460;-75
2021/09/18 11:31:56;;;;;;;1.13;1.03;;;22.20;99.90;;;;;;5012828;28;20464;-74
2021/09/18 11:34:26;;;;;;;1.10;1.00;;;22.20;99.90;;;;;;5011258;28;20468;-75
2021/09/18 11:36:56;;;;;;;0.90;0.90;;;22.20;99.90;;;;;;5011134;28;20983;-74
2021/09/18 11:39:45;;;;;;;1.17;1.10;;;22.40;99.90;;;;;;5027180;28;20442;-75
2021/09/18 11:42:19;;;;;;;1.07;1.00;;;22.50;99.90;;;;;;5011767;28;20809;-75
2021/09/18 11:44:51;;;;;;;0.93;0.90;;;22.60;99.90;;;;;;5012539;28;20480;-75
2021/09/18 11:47:24;;;;;;;1.03;1.03;;;22.70;99.90;;;;;;5008549;28;20474;-76
2021/09/18 11:49:53;;;;;;;1.10;1.00;;;22.70;99.90;;;;;;5009658;28;20458;-75
2021/09/18 11:52:33;;;;;;;1.70;1.30;;;22.70;99.90;;;;;;5006444;28;20457;-75
2021/09/18 11:55:01;;;;;;;0.90;0.90;;;22.70;99.90;;;;;;5012026;28;20575;-72
2021/09/18 11:57:29;;;;;;;1.20;1.10;;;22.80;99.90;;;;;;5007974;28;20457;-73
2021/09/18 12:00:12;;;;;;;1.13;1.10;;;22.80;99.90;;;;;;5007441;28;20943;-73
2021/09/18 12:02:40;;;;;;;1.33;1.23;;;22.90;99.90;;;;;;5010072;28;20465;-72
2021/09/18 12:05:16;;;;;;;1.00;1.00;;;22.90;99.90;;;;;;5010036;28;20524;-73
2021/09/18 12:07:49;;;;;;;0.97;0.90;;;22.90;99.90;;;;;;5011861;28;20467;-73
2021/09/18 12:10:18;;;;;;;3.93;1.60;;;23.00;99.90;;;;;;5005615;28;20465;-71
2021/09/18 12:12:49;;;;;;;1.00;1.00;;;22.90;99.90;;;;;;5010228;28;20812;-73
2021/09/18 12:15:32;;;;;;;1.13;1.03;;;22.90;99.90;;;;;;5011120;28;20477;-74
2021/09/18 12:18:01;;;;;;;1.30;1.20;;;22.90;99.90;;;;;;5011023;28;20441;-70
2021/09/18 12:20:31;;;;;;;1.23;1.17;;;22.90;99.90;;;;;;5010896;28;20453;-73
2021/09/18 12:23:00;;;;;;;1.10;1.10;;;22.80;99.90;;;;;;5010643;28;20983;-72
2021/09/18 12:25:30;;;;;;;1.17;1.13;;;22.80;99.90;;;;;;5010386;28;20489;-73
2021/09/18 12:28:00;;;;;;;1.07;0.97;;;22.90;99.90;;;;;;5009684;28;20461;-76
2021/09/18 12:30:42;;;;;;;2.07;1.20;;;23.00;99.90;;;;;;5010515;28;20445;-75
2021/09/18 12:33:12;;;;;;;0.97;0.97;;;23.10;99.90;;;;;;5010493;28;20972;-76
2021/09/18 12:35:43;;;;;;;1.50;1.40;;;23.20;99.90;;;;;;5026670;28;20449;-73
2021/09/18 12:38:12;;;;;;;1.40;1.30;;;23.20;99.90;;;;;;5011906;28;20457;-70
2021/09/18 12:40:46;;;;;;;1.53;1.10;;;23.10;99.90;;;;;;5004245;28;20457;-78
2021/09/18 12:43:18;;;;;;;1.47;1.30;;;23.20;99.90;;;;;;5009087;28;20445;-76
2021/09/18 12:45:49;;;;;;;1.40;1.30;;;23.30;99.90;;;;;;5011793;28;21478;-75
2021/09/18 12:48:23;;;;;;;1.43;1.33;;;23.40;99.90;;;;;;5011401;28;20457;-76
2021/09/18 12:51:02;;;;;;;2.00;1.30;;;23.50;99.90;;;;;;5010702;28;20445;-77
2021/09/18 12:53:32;;;;;;;1.40;1.30;;;23.50;99.90;;;;;;5010750;28;20457;-75
2021/09/18 12:56:19;;;;;;;2.57;1.53;;;23.50;99.90;;;;;;5009949;28;20972;-76
2021/09/18 12:58:49;;;;;;;0.97;0.97;;;23.40;99.90;;;;;;5009277;28;20457;-76
2021/09/18 13:01:20;;;;;;;1.87;1.10;;;23.40;99.90;;;;;;5009994;28;20912;-77
2021/09/18 13:04:03;;;;;;;1.20;1.10;;;23.50;99.90;;;;;;5010377;28;20500;-78
2021/09/18 13:06:32;;;;;;;1.20;1.10;;;23.40;99.90;;;;;;5004750;28;20476;-77